Time;durP1;ratioP1;P1;durP2;ratioP2;P2;SDS_P1;SDS_P2;PMS_P1;PMS_P2;Temp;Humidity;BMP_temperature;BMP_pressure;BME280_temperature;BME280_humidity;BME280_pressure;Samples;Min_cycle;Max_cycle;Signal;HPM_P1;HPM_P2
2024/04/19 00:00:01;;;;;;;0.47;0.20;;;8.30;77.10;;;;;;5465588;26;20009;-73
2024/04/19 00:02:26;;;;;;;2.13;0.20;;;8.10;77.70;;;;;;5465490;26;20084;-73
2024/04/19 00:04:52;;;;;;;0.50;0.22;;;8.10;76.90;;;;;;5463640;26;20789;-73
2024/04/19 00:07:19;;;;;;;1.17;0.20;;;7.90;77.80;;;;;;5464239;26;20107;-73
2024/04/19 00:09:44;;;;;;;1.25;0.40;;;7.90;78.00;;;;;;5460526;26;20059;-73
2024/04/19 00:12:10;;;;;;;0.80;0.20;;;7.50;78.90;;;;;;5462302;26;20006;-73
2024/04/19 00:14:35;;;;;;;1.58;0.30;;;7.50;79.50;;;;;;5462972;26;20795;-73
2024/04/19 00:17:01;;;;;;;0.32;0.10;;;7.10;79.90;;;;;;5464822;26;20034;-73
2024/04/19 00:19:27;;;;;;;0.52;0.20;;;7.00;80.20;;;;;;5464469;26;20017;-73
2024/04/19 00:21:53;;;;;;;0.95;0.22;;;7.30;79.30;;;;;;5462768;26;20014;-73
2024/04/19 00:24:18;;;;;;;0.28;0.10;;;7.60;78.30;;;;;;5463992;26;20712;-73
2024/04/19 00:26:44;;;;;;;2.63;0.60;;;7.30;79.90;;;;;;5463602;26;20017;-73
2024/04/19 00:29:09;;;;;;;0.95;0.20;;;7.10;80.10;;;;;;5464073;26;20055;-73
2024/04/19 00:31:35;;;;;;;0.65;0.30;;;7.00;80.80;;;;;;5463425;26;20481;-73
2024/04/19 00:34:00;;;;;;;0.50;0.20;;;7.20;79.00;;;;;;5464678;26;20002;-73
2024/04/19 00:36:26;;;;;;;0.75;0.30;;;7.20;80.80;;;;;;5463176;26;20016;-73
2024/04/19 00:38:54;;;;;;;1.48;0.30;;;6.90;81.80;;;;;;5463144;26;20010;-73
2024/04/19 00:41:20;;;;;;;4.85;0.32;;;7.30;78.40;;;;;;5462075;26;20008;-73
2024/04/19 00:43:45;;;;;;;1.25;0.28;;;7.40;79.60;;;;;;5463648;26;20014;-73
2024/04/19 00:46:12;;;;;;;0.32;0.20;;;7.30;79.40;;;;;;5465953;26;19998;-73
2024/04/19 00:48:40;;;;;;;2.35;0.30;;;7.40;78.90;;;;;;5464230;26;20447;-73
2024/04/19 00:51:06;;;;;;;0.52;0.28;;;7.30;79.90;;;;;;5459576;26;20002;-73
2024/04/19 00:53:33;;;;;;;0.55;0.20;;;7.00;82.60;;;;;;5461892;26;20029;-73
2024/04/19 00:56:00;;;;;;;0.52;0.20;;;6.80;81.00;;;;;;5465850;26;19998;-73
2024/04/19 00:58:28;;;;;;;0.45;0.20;;;6.50;83.00;;;;;;5467732;26;20016;-73
2024/04/19 01:00:55;;;;;;;0.52;0.20;;;6.20;84.00;;;;;;5465466;26;20031;-73
2024/04/19 01:03:21;;;;;;;0.15;0.05;;;6.20;83.80;;;;;;5461312;26;19999;-73
2024/04/19 01:05:47;;;;;;;0.30;0.10;;;6.30;83.50;;;;;;5461663;26;20021;-73
2024/04/19 01:08:12;;;;;;;0.28;0.20;;;6.70;81.50;;;;;;5466540;26;20420;-73
2024/04/19 01:10:39;;;;;;;1.75;0.20;;;6.70;81.90;;;;;;5465525;26;19997;-73
2024/04/19 01:13:05;;;;;;;0.90;0.20;;;6.60;81.90;;;;;;5463276;26;20702;-73
2024/04/19 01:15:34;;;;;;;1.65;0.40;;;6.30;83.00;;;;;;5463240;26;20010;-73
2024/04/19 01:18:00;;;;;;;0.95;0.30;;;6.40;82.20;;;;;;5461887;26;20337;-73
2024/04/19 01:20:26;;;;;;;0.93;0.30;;;6.10;83.90;;;;;;5465019;26;20013;-73
2024/04/19 01:22:52;;;;;;;0.47;0.17;;;6.20;83.70;;;;;;5464767;26;20034;-73
2024/04/19 01:25:36;;;;;;;0.55;0.20;;;6.20;82.50;;;;;;5463708;26;20737;-73
2024/04/19 01:28:10;;;;;;;0.25;0.15;;;6.20;83.10;;;;;;5465494;26;20086;-73
2024/04/19 01:30:42;;;;;;;1.60;0.30;;;5.80;84.00;;;;;;5464735;26;19994;-73
2024/04/19 01:33:08;;;;;;;0.82;0.30;;;5.80;84.20;;;;;;5463398;26;20054;-73
2024/04/19 01:35:33;;;;;;;0.22;0.20;;;6.00;83.40;;;;;;5464662;26;20002;-73
2024/04/19 01:37:59;;;;;;;1.85;0.30;;;6.10;83.10;;;;;;5463352;26;20006;-73
2024/04/19 01:40:25;;;;;;;0.45;0.17;;;6.10;83.20;;;;;;5461718;26;20018;-73
2024/04/19 01:42:50;;;;;;;1.08;0.43;;;6.20;82.70;;;;;;5464151;26;20520;-73
2024/04/19 01:45:16;;;;;;;0.55;0.30;;;6.20;83.00;;;;;;5464314;26;20017;-73
2024/04/19 01:47:42;;;;;;;0.65;0.20;;;6.00;83.70;;;;;;5466326;26;20013;-73
2024/04/19 01:50:07;;;;;;;0.20;0.20;;;6.10;83.20;;;;;;5465726;26;20006;-73
2024/04/19 01:52:33;;;;;;;0.68;0.35;;;6.20;83.00;;;;;;5464613;26;20010;-73
2024/04/19 01:54:59;;;;;;;0.73;0.32;;;6.30;82.20;;;;;;5465361;26;20403;-73
2024/04/19 01:57:25;;;;;;;0.85;0.20;;;6.50;81.70;;;;;;5460947;26;20002;-73
2024/04/19 01:59:50;;;;;;;0.57;0.20;;;6.40;82.60;;;;;;5463372;26;20074;-73
2024/04/19 02:02:16;;;;;;;0.00;0.00;;;6.40;81.90;;;;;;5463143;26;20002;-73
2024/04/19 02:04:42;;;;;;;2.13;0.40;;;6.50;81.50;;;;;;5461295;26;20013;-73
2024/04/19 02:07:07;;;;;;;0.95;0.28;;;6.10;83.00;;;;;;5464350;26;20039;-73
2024/04/19 02:09:36;;;;;;;1.02;0.20;;;6.10;82.60;;;;;;5462349;26;20072;-73
2024/04/19 02:12:02;;;;;;;0.47;0.15;;;6.10;82.50;;;;;;5461423;26;20002;-73
2024/04/19 02:14:28;;;;;;;0.60;0.20;;;6.20;82.30;;;;;;5459959;26;20095;-73
2024/04/19 02:16:54;;;;;;;0.88;0.30;;;6.10;82.70;;;;;;5463251;26;20385;-73
2024/04/19 02:19:21;;;;;;;0.20;0.13;;;6.00;83.40;;;;;;5467305;26;20074;-73
2024/04/19 02:21:47;;;;;;;1.15;0.20;;;6.00;82.90;;;;;;5463519;26;20074;-73
2024/04/19 02:24:12;;;;;;;0.70;0.35;;;6.10;82.90;;;;;;5462813;26;20013;-73
2024/04/19 02:26:38;;;;;;;2.67;0.38;;;6.00;83.20;;;;;;5462021;26;20567;-73
2024/04/19 02:31:48;;;;;;;0.45;0.20;;;5.80;83.80;;;;;;5462189;26;20001;-73
2024/04/19 02:34:14;;;;;;;0.73;0.25;;;5.90;83.30;;;;;;5461364;26;21948;-73
2024/04/19 02:36:39;;;;;;;1.27;0.20;;;6.00;82.80;;;;;;5463101;26;20001;-73
2024/04/19 02:39:05;;;;;;;0.15;0.05;;;5.90;83.20;;;;;;5463402;26;20009;-73
2024/04/19 02:41:30;;;;;;;1.17;0.25;;;6.00;83.30;;;;;;5459677;26;20002;-73
2024/04/19 02:43:56;;;;;;;0.35;0.20;;;5.80;84.30;;;;;;5464180;26;20002;-73
2024/04/19 02:46:22;;;;;;;0.10;0.10;;;5.70;84.10;;;;;;5463170;26;20001;-73
2024/04/19 02:48:49;;;;;;;0.35;0.20;;;5.70;83.80;;;;;;5462144;26;20006;-73
2024/04/19 02:51:17;;;;;;;0.32;0.13;;;5.70;83.90;;;;;;5462717;26;20002;-73
2024/04/19 02:53:43;;;;;;;0.57;0.20;;;5.50;84.60;;;;;;5462344;26;20031;-73
2024/04/19 02:56:09;;;;;;;1.40;0.30;;;5.70;84.00;;;;;;5463006;26;20017;-73
2024/04/19 02:58:35;;;;;;;0.20;0.13;;;5.70;83.90;;;;;;5461544;26;20007;-73
2024/04/19 03:01:00;;;;;;;0.88;0.30;;;5.80;83.70;;;;;;5463444;26;20495;-72
2024/04/19 03:03:26;;;;;;;1.08;0.43;;;5.70;84.30;;;;;;5457337;26;20016;-72
2024/04/19 03:05:54;;;;;;;0.98;0.30;;;5.50;84.60;;;;;;5455509;26;20019;-72
2024/04/19 03:08:21;;;;;;;1.02;0.30;;;5.50;84.60;;;;;;5456710;26;19998;-72
2024/04/19 03:10:47;;;;;;;0.60;0.22;;;5.40;84.80;;;;;;5451871;26;20022;-72
2024/04/19 03:13:13;;;;;;;1.27;0.38;;;5.40;84.90;;;;;;5455707;26;20001;-72
2024/04/19 03:15:39;;;;;;;0.15;0.10;;;5.30;85.00;;;;;;5456217;26;20774;-72
2024/04/19 03:18:05;;;;;;;0.57;0.25;;;5.30;84.90;;;;;;5451753;26;20426;-72
2024/04/19 03:20:31;;;;;;;0.20;0.20;;;5.20;85.60;;;;;;5453632;26;20021;-72
2024/04/19 03:22:56;;;;;;;0.20;0.15;;;5.10;86.10;;;;;;5452974;26;20024;-72
2024/04/19 03:25:22;;;;;;;1.45;0.38;;;5.20;87.20;;;;;;5452396;26;20024;-72
2024/04/19 03:27:51;;;;;;;0.70;0.30;;;5.30;86.10;;;;;;5455946;26;20460;-72
2024/04/19 03:30:27;;;;;;;0.47;0.30;;;4.90;87.20;;;;;;5453953;26;20014;-72
2024/04/19 03:32:52;;;;;;;0.50;0.20;;;4.80;87.70;;;;;;5456711;26;21665;-72
2024/04/19 03:35:18;;;;;;;0.63;0.30;;;4.90;87.90;;;;;;5458050;26;21560;-72
2024/04/19 03:37:44;;;;;;;1.58;0.40;;;5.20;86.40;;;;;;5460005;26;20009;-72
2024/04/19 03:40:10;;;;;;;0.32;0.10;;;5.30;85.80;;;;;;5458312;26;20006;-72
2024/04/19 03:42:45;;;;;;;0.22;0.20;;;5.30;85.70;;;;;;5458735;26;20468;-72
2024/04/19 03:47:59;;;;;;;0.88;0.30;;;5.30;85.80;;;;;;5454693;26;20043;-72
2024/04/19 03:50:24;;;;;;;1.20;0.38;;;5.40;85.70;;;;;;5454992;26;20006;-72
2024/04/19 03:52:50;;;;;;;0.65;0.25;;;5.50;85.80;;;;;;5455884;26;20359;-73
2024/04/19 03:55:16;;;;;;;0.90;0.30;;;5.20;86.10;;;;;;5454731;26;20014;-72
2024/04/19 03:57:42;;;;;;;0.60;0.30;;;5.30;86.30;;;;;;5458824;26;20048;-72
2024/04/19 04:00:08;;;;;;;2.25;0.30;;;5.10;87.10;;;;;;5454672;26;20643;-72
2024/04/19 04:02:33;;;;;;;0.80;0.40;;;5.20;86.40;;;;;;5455469;26;20791;-72
2024/04/19 04:04:59;;;;;;;2.10;0.50;;;5.40;86.20;;;;;;5453199;26;20013;-72
2024/04/19 04:07:25;;;;;;;0.90;0.30;;;5.20;86.90;;;;;;5454870;26;20598;-73
2024/04/19 04:09:50;;;;;;;0.63;0.30;;;5.20;87.10;;;;;;5455860;26;20700;-73
2024/04/19 04:12:16;;;;;;;0.82;0.30;;;5.30;86.80;;;;;;5454080;26;20002;-73
2024/04/19 04:14:42;;;;;;;0.32;0.20;;;5.40;86.50;;;;;;5455330;26;20736;-71
2024/04/19 04:17:07;;;;;;;0.73;0.30;;;5.50;86.30;;;;;;5451669;26;20504;-71
2024/04/19 04:19:34;;;;;;;0.40;0.30;;;5.30;87.60;;;;;;5453023;26;21657;-72
2024/04/19 04:22:00;;;;;;;4.07;0.30;;;5.10;88.90;;;;;;5453813;26;20017;-72
2024/04/19 04:24:27;;;;;;;0.73;0.40;;;5.10;88.90;;;;;;5455439;26;20002;-72
2024/04/19 04:26:53;;;;;;;0.88;0.30;;;5.20;88.90;;;;;;5455651;26;20066;-73
2024/04/19 04:29:18;;;;;;;0.68;0.30;;;5.10;90.10;;;;;;5453813;26;20018;-73
2024/04/19 04:31:44;;;;;;;0.63;0.30;;;5.00;89.70;;;;;;5454790;26;20018;-73
2024/04/19 04:34:09;;;;;;;0.10;0.10;;;5.20;88.40;;;;;;5450650;26;20772;-72
2024/04/19 04:36:35;;;;;;;1.27;0.55;;;5.20;89.10;;;;;;5455022;26;20078;-73
2024/04/19 04:39:01;;;;;;;1.08;0.28;;;4.90;89.70;;;;;;5454609;26;20043;-73
2024/04/19 04:41:26;;;;;;;0.77;0.25;;;5.00;89.60;;;;;;5452327;26;20653;-73
2024/04/19 04:43:52;;;;;;;0.80;0.40;;;4.70;90.80;;;;;;5455039;26;20005;-73
2024/04/19 04:46:17;;;;;;;1.83;0.30;;;4.80;90.50;;;;;;5455785;26;20746;-73
2024/04/19 04:48:43;;;;;;;0.85;0.30;;;4.90;90.50;;;;;;5456480;26;19998;-73
2024/04/19 04:51:09;;;;;;;0.45;0.22;;;5.00;90.10;;;;;;5451924;26;20754;-73
2024/04/19 04:53:34;;;;;;;0.75;0.30;;;5.20;90.00;;;;;;5453076;26;20013;-73
2024/04/19 04:56:00;;;;;;;0.95;0.40;;;5.30;88.70;;;;;;5454840;26;20736;-73
2024/04/19 04:58:25;;;;;;;22.95;8.55;;;5.40;89.10;;;;;;5452925;26;20052;-73
2024/04/19 05:00:51;;;;;;;4.55;1.92;;;5.50;90.50;;;;;;5453572;26;20013;-73
2024/04/19 05:03:17;;;;;;;1.85;0.52;;;4.90;90.30;;;;;;5452018;26;20016;-73
2024/04/19 05:05:42;;;;;;;1.67;0.68;;;4.80;90.70;;;;;;5457200;26;20017;-73
2024/04/19 05:08:08;;;;;;;1.30;0.45;;;4.80;90.80;;;;;;5452863;26;20496;-73
2024/04/19 05:10:34;;;;;;;1.67;0.55;;;4.80;90.50;;;;;;5453813;26;20703;-73
2024/04/19 05:12:59;;;;;;;2.50;0.40;;;4.90;90.70;;;;;;5454073;26;20020;-73
2024/04/19 05:15:25;;;;;;;1.70;0.50;;;4.90;91.10;;;;;;5456086;26;20030;-74
2024/04/19 05:17:51;;;;;;;1.75;0.52;;;5.10;91.10;;;;;;5456569;26;20021;-72
2024/04/19 05:20:16;;;;;;;0.68;0.30;;;5.20;90.30;;;;;;5452784;26;20018;-72
2024/04/19 05:22:42;;;;;;;2.22;0.75;;;5.40;89.70;;;;;;5449675;26;20534;-73
2024/04/19 05:25:08;;;;;;;1.42;0.43;;;5.70;90.50;;;;;;5454593;26;20014;-73
2024/04/19 05:27:34;;;;;;;3.30;0.93;;;5.70;90.50;;;;;;5455944;26;20549;-73
2024/04/19 05:29:59;;;;;;;1.73;0.77;;;5.80;91.10;;;;;;5453254;26;20017;-73
2024/04/19 05:32:25;;;;;;;2.15;0.70;;;5.90;91.50;;;;;;5450456;26;20002;-73
2024/04/19 05:34:51;;;;;;;1.38;0.55;;;5.90;91.50;;;;;;5452630;26;20021;-73
2024/04/19 05:37:16;;;;;;;0.65;0.43;;;6.00;91.80;;;;;;5455111;26;19998;-73
2024/04/19 05:39:42;;;;;;;1.98;0.65;;;5.70;91.00;;;;;;5454487;26;20107;-73
2024/04/19 05:42:08;;;;;;;1.20;0.45;;;5.60;90.90;;;;;;5453763;26;20556;-74
2024/04/19 05:44:34;;;;;;;0.50;0.20;;;5.60;91.40;;;;;;5453476;26;20024;-73
2024/04/19 05:47:00;;;;;;;0.63;0.25;;;6.00;90.20;;;;;;5453416;26;20341;-73
2024/04/19 05:49:26;;;;;;;3.35;0.80;;;6.10;90.30;;;;;;5451968;26;19994;-73
2024/04/19 05:51:52;;;;;;;1.38;0.50;;;6.10;90.20;;;;;;5450126;26;20016;-73
2024/04/19 05:54:18;;;;;;;1.40;0.40;;;6.30;90.80;;;;;;5456718;26;20010;-73
2024/04/19 05:56:44;;;;;;;1.15;0.45;;;6.50;88.90;;;;;;5457505;26;20010;-73
2024/04/19 05:59:10;;;;;;;1.17;0.50;;;6.60;88.00;;;;;;5452155;26;20546;-73
2024/04/19 06:01:35;;;;;;;1.35;0.40;;;6.70;87.40;;;;;;5451278;26;20009;-73
2024/04/19 06:04:01;;;;;;;1.50;0.50;;;6.80;87.10;;;;;;5453560;26;20014;-74
2024/04/19 06:06:27;;;;;;;0.68;0.30;;;6.90;88.70;;;;;;5452631;26;20002;-73
2024/04/19 06:08:52;;;;;;;2.30;0.70;;;6.90;88.40;;;;;;5452983;26;23014;-73
2024/04/19 06:11:18;;;;;;;0.98;0.30;;;7.00;88.10;;;;;;5452494;26;19998;-73
2024/04/19 06:13:44;;;;;;;0.88;0.55;;;7.20;89.80;;;;;;5452922;26;20022;-73
2024/04/19 06:16:10;;;;;;;2.97;0.60;;;7.30;90.20;;;;;;5453533;26;19998;-72
2024/04/19 06:18:37;;;;;;;3.25;0.80;;;7.40;90.50;;;;;;5450791;26;20025;-73
2024/04/19 06:21:03;;;;;;;4.25;0.80;;;7.40;90.10;;;;;;5452036;26;20404;-72
2024/04/19 06:23:28;;;;;;;1.67;0.80;;;7.50;89.60;;;;;;5451667;26;20013;-72
2024/04/19 06:25:55;;;;;;;1.45;0.70;;;7.50;90.20;;;;;;5453094;26;19998;-73
2024/04/19 06:28:21;;;;;;;1.48;0.60;;;7.60;90.00;;;;;;5454026;26;20061;-73
2024/04/19 06:30:47;;;;;;;2.33;0.65;;;7.60;89.50;;;;;;5452308;26;20006;-73
2024/04/19 06:33:13;;;;;;;3.33;0.90;;;7.50;88.70;;;;;;5450595;26;20498;-73
2024/04/19 06:35:38;;;;;;;2.15;0.88;;;7.30;86.70;;;;;;5451153;26;20790;-73
2024/04/19 06:38:04;;;;;;;3.88;0.70;;;7.50;87.50;;;;;;5452442;26;20006;-73
2024/04/19 06:40:30;;;;;;;2.95;0.60;;;7.40;88.90;;;;;;5453610;26;20010;-73
2024/04/19 06:42:55;;;;;;;10.18;1.15;;;7.40;90.10;;;;;;5450414;26;20003;-73
2024/04/19 06:45:21;;;;;;;3.25;1.10;;;7.30;89.60;;;;;;5452361;26;20021;-73
2024/04/19 06:47:47;;;;;;;3.42;1.35;;;7.30;91.10;;;;;;5451327;26;19998;-73
2024/04/19 06:50:12;;;;;;;13.43;2.42;;;7.20;91.20;;;;;;5452771;26;20005;-73
2024/04/19 06:52:38;;;;;;;3.88;1.27;;;7.10;91.80;;;;;;5452382;26;20010;-74
2024/04/19 06:55:04;;;;;;;2.55;1.13;;;7.10;91.90;;;;;;5450662;26;20379;-73
2024/04/19 06:57:29;;;;;;;2.60;1.35;;;7.20;91.20;;;;;;5448089;26;20010;-74
2024/04/19 06:59:55;;;;;;;5.07;1.35;;;7.30;91.60;;;;;;5451067;26;20010;-74
2024/04/19 07:02:21;;;;;;;5.35;1.30;;;7.20;91.70;;;;;;5449323;26;20017;-73
2024/04/19 07:04:46;;;;;;;3.65;1.30;;;7.30;91.40;;;;;;5453390;26;20002;-73
2024/04/19 07:07:12;;;;;;;4.72;1.15;;;7.60;91.90;;;;;;5452370;26;21020;-74
2024/04/19 07:09:37;;;;;;;2.22;1.05;;;7.70;91.80;;;;;;5449678;26;20009;-74
2024/04/19 07:12:03;;;;;;;2.70;1.10;;;7.70;92.20;;;;;;5452849;26;20649;-73
2024/04/19 07:14:29;;;;;;;3.97;1.67;;;7.70;92.30;;;;;;5450610;26;20019;-73
2024/04/19 07:16:55;;;;;;;4.22;1.35;;;7.90;92.30;;;;;;5450650;26;20006;-73
2024/04/19 07:19:20;;;;;;;3.17;1.23;;;7.70;92.10;;;;;;5453611;26;20002;-73
2024/04/19 07:21:46;;;;;;;5.32;1.88;;;7.90;92.10;;;;;;5449872;26;20336;-73
2024/04/19 07:24:12;;;;;;;5.10;1.83;;;7.90;93.20;;;;;;5452317;26;20001;-73
2024/04/19 07:26:40;;;;;;;5.03;2.40;;;7.80;93.20;;;;;;5448353;26;20743;-73
2024/04/19 07:29:06;;;;;;;5.72;2.05;;;7.70;93.40;;;;;;5451807;26;20017;-74
2024/04/19 07:31:31;;;;;;;3.75;1.60;;;7.60;93.30;;;;;;5449571;26;20472;-73
2024/04/19 07:33:57;;;;;;;4.55;1.80;;;7.60;92.80;;;;;;5452636;26;20025;-73
2024/04/19 07:36:24;;;;;;;4.32;1.58;;;7.90;93.40;;;;;;5452595;26;20009;-73
2024/04/19 07:38:49;;;;;;;3.42;1.77;;;8.10;93.30;;;;;;5450607;26;20024;-73
2024/04/19 07:41:15;;;;;;;4.47;1.60;;;8.20;93.50;;;;;;5445313;26;20471;-74
2024/04/19 07:43:40;;;;;;;4.15;1.60;;;7.90;93.40;;;;;;5445363;26;20003;-73
2024/04/19 07:46:06;;;;;;;6.70;1.65;;;8.00;92.80;;;;;;5454569;26;20009;-73
2024/04/19 07:48:31;;;;;;;4.85;1.45;;;7.90;92.40;;;;;;5454504;26;20444;-74
2024/04/19 07:50:59;;;;;;;3.28;1.15;;;8.00;92.60;;;;;;5455315;26;19998;-75
2024/04/19 07:53:25;;;;;;;4.50;2.15;;;8.20;92.10;;;;;;5450456;26;20071;-73
2024/04/19 07:55:50;;;;;;;6.93;1.60;;;8.20;92.30;;;;;;5453378;26;20512;-74
2024/04/19 07:58:16;;;;;;;7.35;1.73;;;8.20;92.50;;;;;;5452969;26;20013;-74
2024/04/19 08:00:41;;;;;;;3.80;1.58;;;8.40;91.40;;;;;;5451705;26;20017;-74
2024/04/19 08:03:07;;;;;;;7.65;2.08;;;8.40;90.90;;;;;;5452371;26;19998;-74
2024/04/19 08:05:33;;;;;;;5.15;1.30;;;8.70;91.30;;;;;;5450076;26;20038;-74
2024/04/19 08:07:59;;;;;;;6.47;2.25;;;9.00;91.60;;;;;;5454650;26;20071;-74
2024/04/19 08:10:28;;;;;;;3.50;1.80;;;9.20;91.40;;;;;;5452133;26;20007;-74
2024/04/19 08:12:53;;;;;;;7.35;1.55;;;9.00;90.30;;;;;;5455324;26;20534;-74
2024/04/19 08:15:19;;;;;;;8.30;1.90;;;9.00;91.40;;;;;;5457237;26;20010;-74
2024/04/19 08:17:45;;;;;;;6.18;1.65;;;9.20;91.50;;;;;;5458919;26;19994;-74
2024/04/19 08:20:11;;;;;;;3.05;1.30;;;9.40;91.60;;;;;;5457015;26;20074;-73
2024/04/19 08:22:37;;;;;;;6.30;1.73;;;9.30;91.00;;;;;;5457507;26;20045;-75
2024/04/19 08:25:02;;;;;;;4.43;1.60;;;9.10;90.90;;;;;;5457119;26;20002;-73
2024/04/19 08:27:28;;;;;;;4.53;1.40;;;9.00;90.60;;;;;;5456830;26;20006;-73
2024/04/19 08:29:54;;;;;;;4.55;1.27;;;9.20;91.30;;;;;;5455600;26;20357;-71
2024/04/19 08:32:20;;;;;;;5.97;1.92;;;9.60;90.70;;;;;;5457148;26;20006;-71
2024/04/19 08:34:54;;;;;;;3.10;1.48;;;9.70;90.90;;;;;;5457341;26;21624;-74
2024/04/19 08:37:20;;;;;;;4.40;1.27;;;9.90;90.70;;;;;;5456312;26;20010;-72
2024/04/19 08:39:46;;;;;;;3.85;1.08;;;10.20;90.00;;;;;;5457267;26;20404;-72
2024/04/19 08:42:14;;;;;;;2.92;1.20;;;10.00;89.50;;;;;;5457701;26;20013;-72
2024/04/19 08:44:46;;;;;;;5.75;1.50;;;10.20;89.00;;;;;;5456811;26;20557;-72
2024/04/19 08:47:15;;;;;;;2.45;1.08;;;10.40;89.30;;;;;;5458726;26;20337;-72
2024/04/19 08:49:42;;;;;;;3.28;1.00;;;10.60;90.30;;;;;;5456029;26;20035;-72
2024/04/19 08:52:08;;;;;;;4.45;1.50;;;10.50;89.90;;;;;;5459197;26;20566;-72
2024/04/19 08:54:35;;;;;;;2.53;0.95;;;10.40;90.20;;;;;;5458514;26;20017;-74
2024/04/19 08:57:01;;;;;;;5.68;1.13;;;10.40;89.50;;;;;;5456344;26;20010;-72
2024/04/19 08:59:33;;;;;;;5.35;2.05;;;10.50;89.60;;;;;;5455065;26;20799;-72
2024/04/19 09:02:00;;;;;;;9.27;1.58;;;10.40;89.40;;;;;;5457007;26;20649;-72
2024/04/19 09:04:26;;;;;;;4.10;1.00;;;10.60;90.10;;;;;;5457756;26;20020;-71
2024/04/19 09:06:51;;;;;;;4.38;1.13;;;11.00;89.20;;;;;;5457963;26;20001;-72
2024/04/19 09:09:17;;;;;;;6.00;1.85;;;10.80;88.80;;;;;;5458145;26;20447;-72
2024/04/19 09:11:44;;;;;;;2.40;1.02;;;10.70;89.50;;;;;;5454721;26;20029;-72
2024/04/19 09:14:10;;;;;;;4.30;1.00;;;10.70;88.80;;;;;;5457480;26;20013;-73
2024/04/19 09:16:36;;;;;;;7.60;2.40;;;10.70;87.50;;;;;;5455938;26;20457;-73
2024/04/19 09:19:01;;;;;;;4.88;1.95;;;10.50;87.20;;;;;;5456198;26;20017;-73
2024/04/19 09:21:27;;;;;;;5.53;1.92;;;10.60;87.60;;;;;;5450827;26;20006;-73
2024/04/19 09:23:57;;;;;;;3.13;1.13;;;10.80;90.00;;;;;;5456202;26;20637;-73
2024/04/19 09:26:22;;;;;;;6.30;1.60;;;10.50;86.50;;;;;;5456485;26;20671;-73
2024/04/19 09:28:51;;;;;;;3.67;1.23;;;10.80;88.30;;;;;;5454881;26;20010;-73
2024/04/19 09:31:17;;;;;;;2.15;0.70;;;11.00;84.30;;;;;;5453153;26;20006;-73
2024/04/19 09:33:42;;;;;;;2.97;0.88;;;11.10;84.20;;;;;;5455295;26;20084;-73
2024/04/19 09:36:09;;;;;;;3.45;1.20;;;11.30;84.40;;;;;;5457827;26;20029;-73
2024/04/19 09:38:38;;;;;;;2.05;0.82;;;11.30;82.20;;;;;;5458571;26;20034;-72
2024/04/19 09:41:05;;;;;;;4.30;1.25;;;11.30;83.20;;;;;;5456034;26;20030;-73
2024/04/19 09:43:36;;;;;;;3.13;0.73;;;11.40;81.90;;;;;;5453552;26;20011;-73
2024/04/19 09:46:03;;;;;;;1.75;0.88;;;11.40;83.10;;;;;;5452850;26;20005;-73
2024/04/19 09:48:39;;;;;;;1.63;0.80;;;11.60;83.60;;;;;;5457579;26;20024;-73
2024/04/19 09:51:09;;;;;;;2.70;1.00;;;11.90;84.20;;;;;;5453935;26;20015;-73
2024/04/19 09:53:38;;;;;;;4.88;1.50;;;12.00;83.90;;;;;;5454215;26;19994;-72
2024/04/19 09:56:43;;;;;;;2.40;0.77;;;11.90;81.80;;;;;;5452810;26;20090;-73
2024/04/19 09:59:09;;;;;;;1.60;0.75;;;11.90;81.70;;;;;;5311096;26;20016;-73
2024/04/19 10:01:36;;;;;;;3.65;1.63;;;12.20;81.80;;;;;;5423450;26;20456;-73
2024/04/19 10:04:08;;;;;;;4.82;1.85;;;12.20;82.60;;;;;;5453901;26;20014;-73
2024/04/19 10:06:36;;;;;;;8.13;2.10;;;12.20;83.10;;;;;;5450514;26;20351;-73
2024/04/19 10:09:09;;;;;;;6.95;2.35;;;12.40;82.40;;;;;;5454403;26;20006;-73
2024/04/19 10:11:38;;;;;;;6.47;1.63;;;12.80;79.00;;;;;;5454836;26;20014;-73
2024/04/19 10:14:05;;;;;;;5.18;1.17;;;12.80;80.80;;;;;;5456971;26;20002;-73
2024/04/19 10:16:31;;;;;;;2.78;1.27;;;12.90;82.90;;;;;;5457429;26;20009;-74
2024/04/19 10:18:57;;;;;;;4.97;1.65;;;12.80;79.80;;;;;;5455181;26;20005;-73
2024/04/19 10:21:27;;;;;;;3.05;1.02;;;13.00;78.80;;;;;;5454931;26;20703;-73
2024/04/19 10:23:53;;;;;;;2.83;0.90;;;13.10;78.70;;;;;;5455305;26;20002;-73
2024/04/19 10:26:22;;;;;;;3.05;0.60;;;13.00;77.70;;;;;;5457028;26;20082;-73
2024/04/19 10:28:55;;;;;;;1.67;0.70;;;12.90;78.00;;;;;;5455077;26;20006;-74
2024/04/19 10:31:24;;;;;;;1.25;0.52;;;12.80;80.40;;;;;;5453286;26;20498;-73
2024/04/19 10:33:50;;;;;;;2.00;0.82;;;13.20;79.10;;;;;;5454548;26;20067;-73
2024/04/19 10:36:15;;;;;;;0.88;0.40;;;13.40;78.40;;;;;;5454963;26;20622;-73
2024/04/19 10:38:41;;;;;;;3.30;0.90;;;13.50;75.50;;;;;;5454028;26;20013;-73
2024/04/19 10:41:16;;;;;;;2.80;1.15;;;13.50;78.50;;;;;;5449085;26;20489;-73
2024/04/19 10:43:42;;;;;;;3.75;1.13;;;13.50;79.80;;;;;;5451487;26;20002;-73
2024/04/19 10:46:11;;;;;;;2.00;0.25;;;13.60;75.90;;;;;;5453963;26;20039;-73
2024/04/19 10:48:43;;;;;;;0.55;0.40;;;13.70;74.90;;;;;;5453491;26;20114;-73
2024/04/19 10:51:13;;;;;;;0.43;0.22;;;13.80;75.00;;;;;;5454201;26;20329;-73
2024/04/19 10:53:43;;;;;;;1.17;0.50;;;13.70;73.30;;;;;;5452628;26;20005;-74
2024/04/19 10:56:08;;;;;;;3.88;0.35;;;13.80;75.80;;;;;;5452661;26;20769;-73
2024/04/19 10:58:34;;;;;;;1.08;0.35;;;13.90;75.60;;;;;;5449506;26;20025;-74
2024/04/19 11:01:00;;;;;;;0.52;0.20;;;14.10;76.20;;;;;;5454003;26;20078;-74
2024/04/19 11:03:27;;;;;;;1.75;0.38;;;14.50;76.90;;;;;;5456547;26;20014;-73
2024/04/19 11:05:53;;;;;;;0.32;0.10;;;14.80;76.30;;;;;;5456385;26;20014;-73
2024/04/19 11:08:20;;;;;;;3.78;0.70;;;14.60;73.10;;;;;;5454872;26;20495;-73
2024/04/19 11:10:46;;;;;;;0.45;0.20;;;14.80;73.00;;;;;;5453189;26;19997;-73
2024/04/19 11:13:11;;;;;;;1.35;0.40;;;14.90;72.90;;;;;;5453295;26;20054;-73
2024/04/19 11:15:38;;;;;;;4.95;0.32;;;15.00;73.00;;;;;;5456836;26;20010;-73
2024/04/19 11:18:04;;;;;;;1.85;0.50;;;15.20;75.20;;;;;;5454114;26;20032;-73
2024/04/19 11:20:30;;;;;;;3.25;0.28;;;15.10;71.30;;;;;;5452456;26;20092;-73
2024/04/19 11:22:57;;;;;;;0.57;0.20;;;15.20;70.20;;;;;;5455107;26;20009;-73
2024/04/19 11:25:22;;;;;;;1.17;0.40;;;15.60;70.30;;;;;;5455320;26;20458;-73
2024/04/19 11:27:49;;;;;;;1.45;0.40;;;15.60;70.10;;;;;;5452895;26;20006;-73
2024/04/19 11:30:15;;;;;;;8.38;0.68;;;15.60;70.80;;;;;;5453562;26;20006;-74
2024/04/19 11:32:41;;;;;;;3.25;0.55;;;15.70;69.60;;;;;;5451886;26;20309;-73
2024/04/19 11:35:10;;;;;;;1.67;0.30;;;15.50;69.40;;;;;;5453436;26;20021;-73
2024/04/19 11:37:36;;;;;;;2.28;0.85;;;15.50;69.30;;;;;;5454206;26;19998;-73
2024/04/19 11:40:03;;;;;;;1.55;0.50;;;15.60;70.70;;;;;;5455679;26;20715;-73
2024/04/19 11:42:29;;;;;;;3.90;0.70;;;15.90;71.80;;;;;;5453172;26;20018;-73
2024/04/19 11:44:54;;;;;;;0.93;0.40;;;15.90;69.60;;;;;;5452359;26;20502;-74
2024/04/19 11:47:20;;;;;;;0.75;0.30;;;15.80;70.20;;;;;;5452625;26;20006;-74
2024/04/19 11:49:46;;;;;;;14.68;1.60;;;16.10;69.80;;;;;;5456970;26;20018;-73
2024/04/19 11:52:11;;;;;;;0.63;0.40;;;16.10;68.80;;;;;;5455819;26;20491;-73
2024/04/19 11:54:38;;;;;;;0.95;0.30;;;16.10;69.50;;;;;;5455557;26;19994;-74
2024/04/19 11:57:06;;;;;;;1.20;0.40;;;16.20;71.00;;;;;;5454548;26;19994;-73
2024/04/19 11:59:31;;;;;;;0.90;0.40;;;16.30;69.10;;;;;;5453228;26;20003;-73
2024/04/19 12:01:57;;;;;;;0.10;0.10;;;16.00;69.00;;;;;;5452178;26;20424;-73
2024/04/19 12:04:23;;;;;;;0.57;0.20;;;16.30;69.20;;;;;;5452789;26;20911;-72
2024/04/19 12:06:48;;;;;;;1.15;0.38;;;16.30;70.40;;;;;;5450508;26;20038;-73
2024/04/19 12:09:14;;;;;;;0.30;0.20;;;16.50;69.60;;;;;;5454707;26;20006;-73
2024/04/19 12:11:41;;;;;;;0.55;0.22;;;16.60;68.90;;;;;;5450117;26;20005;-73
2024/04/19 12:14:07;;;;;;;0.98;0.32;;;16.80;69.00;;;;;;5452670;26;20351;-73
2024/04/19 12:16:32;;;;;;;1.17;0.38;;;16.90;69.20;;;;;;5452083;26;20043;-73
2024/04/19 12:18:58;;;;;;;0.90;0.30;;;16.90;69.50;;;;;;5452022;26;20016;-73
2024/04/19 12:21:23;;;;;;;1.15;0.30;;;16.40;67.60;;;;;;5452459;26;21561;-73
2024/04/19 12:23:49;;;;;;;2.90;0.52;;;16.70;69.40;;;;;;5450083;26;20063;-72
2024/04/19 12:26:16;;;;;;;0.28;0.28;;;16.50;69.60;;;;;;5450263;26;20021;-73
2024/04/19 12:28:41;;;;;;;1.45;0.40;;;16.80;68.60;;;;;;5451245;26;20455;-74
2024/04/19 12:31:07;;;;;;;1.73;0.52;;;17.00;68.00;;;;;;5452387;26;20001;-73
2024/04/19 12:33:33;;;;;;;1.25;0.35;;;17.30;69.60;;;;;;5451620;26;20007;-73
2024/04/19 12:35:58;;;;;;;0.82;0.40;;;17.10;68.10;;;;;;5451665;26;20006;-74
2024/04/19 12:38:24;;;;;;;1.33;0.52;;;16.80;68.00;;;;;;5454127;26;20014;-74
2024/04/19 12:40:50;;;;;;;0.73;0.50;;;16.70;69.00;;;;;;5450520;26;20016;-73
2024/04/19 12:43:16;;;;;;;0.75;0.40;;;16.60;68.30;;;;;;5452753;26;20006;-74
2024/04/19 12:45:46;;;;;;;5.05;0.98;;;16.60;67.90;;;;;;5452735;26;20698;-73
2024/04/19 12:48:12;;;;;;;1.20;0.52;;;16.60;70.00;;;;;;5451936;26;20412;-73
2024/04/19 12:50:37;;;;;;;29.25;2.30;;;16.50;67.80;;;;;;5448718;26;20061;-73
2024/04/19 12:53:04;;;;;;;1.13;0.35;;;16.50;69.20;;;;;;5452705;26;20017;-74